sensor_id;sensor_type;location;lat;lon;timestamp;temperature;humidity
43808;DHT22;29438;50.664;10.098;2023-08-12T00:01:36;15.80;86.80
43808;DHT22;29438;50.664;10.098;2023-08-12T00:04:02;15.80;86.80
43808;DHT22;29438;50.664;10.098;2023-08-12T00:06:27;15.80;86.80
43808;DHT22;29438;50.664;10.098;2023-08-12T00:08:54;15.80;86.80
43808;DHT22;29438;50.664;10.098;2023-08-12T00:11:19;15.90;86.90
43808;DHT22;29438;50.664;10.098;2023-08-12T00:13:45;15.80;86.90
43808;DHT22;29438;50.664;10.098;2023-08-12T00:16:10;15.80;87.10
43808;DHT22;29438;50.664;10.098;2023-08-12T00:18:36;15.70;87.00
43808;DHT22;29438;50.664;10.098;2023-08-12T00:21:07;15.70;87.20
43808;DHT22;29438;50.664;10.098;2023-08-12T00:23:38;15.80;87.20
43808;DHT22;29438;50.664;10.098;2023-08-12T00:26:04;15.70;87.20
43808;DHT22;29438;50.664;10.098;2023-08-12T00:28:29;15.70;87.40
43808;DHT22;29438;50.664;10.098;2023-08-12T00:30:55;15.70;87.40
43808;DHT22;29438;50.664;10.098;2023-08-12T00:33:20;15.70;87.40
43808;DHT22;29438;50.664;10.098;2023-08-12T00:35:46;15.60;87.50
43808;DHT22;29438;50.664;10.098;2023-08-12T00:38:11;15.70;87.60
43808;DHT22;29438;50.664;10.098;2023-08-12T00:40:37;15.60;87.70
43808;DHT22;29438;50.664;10.098;2023-08-12T00:43:03;15.60;87.70
43808;DHT22;29438;50.664;10.098;2023-08-12T00:45:29;15.60;87.80
43808;DHT22;29438;50.664;10.098;2023-08-12T00:47:55;15.50;87.80
43808;DHT22;29438;50.664;10.098;2023-08-12T00:50:21;15.50;87.90
43808;DHT22;29438;50.664;10.098;2023-08-12T00:52:47;15.40;87.90
43808;DHT22;29438;50.664;10.098;2023-08-12T00:55:13;15.50;88.10
43808;DHT22;29438;50.664;10.098;2023-08-12T00:57:39;15.40;88.20
43808;DHT22;29438;50.664;10.098;2023-08-12T01:00:05;15.50;88.30
43808;DHT22;29438;50.664;10.098;2023-08-12T01:02:31;15.40;88.30
43808;DHT22;29438;50.664;10.098;2023-08-12T01:04:58;15.50;88.50
43808;DHT22;29438;50.664;10.098;2023-08-12T01:07:23;15.40;88.60
43808;DHT22;29438;50.664;10.098;2023-08-12T01:09:49;15.50;88.80
43808;DHT22;29438;50.664;10.098;2023-08-12T01:12:28;15.50;88.70
43808;DHT22;29438;50.664;10.098;2023-08-12T01:15:08;15.50;88.70
43808;DHT22;29438;50.664;10.098;2023-08-12T01:17:38;15.50;88.70
43808;DHT22;29438;50.664;10.098;2023-08-12T01:20:06;15.60;88.70
43808;DHT22;29438;50.664;10.098;2023-08-12T01:22:40;15.70;88.80
43808;DHT22;29438;50.664;10.098;2023-08-12T01:25:07;15.60;88.70
43808;DHT22;29438;50.664;10.098;2023-08-12T01:27:35;15.70;88.50
43808;DHT22;29438;50.664;10.098;2023-08-12T01:30:01;15.70;88.50
43808;DHT22;29438;50.664;10.098;2023-08-12T01:32:39;15.70;88.60
43808;DHT22;29438;50.664;10.098;2023-08-12T01:37:43;15.70;88.50
43808;DHT22;29438;50.664;10.098;2023-08-12T01:40:09;15.70;88.50
43808;DHT22;29438;50.664;10.098;2023-08-12T01:42:36;15.70;88.50
43808;DHT22;29438;50.664;10.098;2023-08-12T01:45:04;15.70;88.50
43808;DHT22;29438;50.664;10.098;2023-08-12T01:47:29;15.70;88.50
43808;DHT22;29438;50.664;10.098;2023-08-12T01:49:56;15.80;88.50
43808;DHT22;29438;50.664;10.098;2023-08-12T01:52:21;15.80;88.60
43808;DHT22;29438;50.664;10.098;2023-08-12T01:54:47;15.90;88.70
43808;DHT22;29438;50.664;10.098;2023-08-12T01:57:12;15.90;88.60
43808;DHT22;29438;50.664;10.098;2023-08-12T01:59:38;15.80;88.70
43808;DHT22;29438;50.664;10.098;2023-08-12T02:02:04;15.90;88.70
43808;DHT22;29438;50.664;10.098;2023-08-12T02:04:30;15.90;88.60
43808;DHT22;29438;50.664;10.098;2023-08-12T02:06:56;15.90;88.60
43808;DHT22;29438;50.664;10.098;2023-08-12T02:09:23;15.90;88.60
43808;DHT22;29438;50.664;10.098;2023-08-12T02:11:49;15.90;88.60
43808;DHT22;29438;50.664;10.098;2023-08-12T02:14:15;15.90;88.70
43808;DHT22;29438;50.664;10.098;2023-08-12T02:16:41;16.00;88.70
43808;DHT22;29438;50.664;10.098;2023-08-12T02:19:06;15.90;88.60
43808;DHT22;29438;50.664;10.098;2023-08-12T02:21:32;15.90;88.80
43808;DHT22;29438;50.664;10.098;2023-08-12T02:23:58;15.90;88.80
43808;DHT22;29438;50.664;10.098;2023-08-12T02:26:23;15.80;88.80
43808;DHT22;29438;50.664;10.098;2023-08-12T02:28:49;15.90;88.90
43808;DHT22;29438;50.664;10.098;2023-08-12T02:31:15;15.90;88.90
43808;DHT22;29438;50.664;10.098;2023-08-12T02:33:41;16.00;88.90
43808;DHT22;29438;50.664;10.098;2023-08-12T02:36:06;16.00;89.00
43808;DHT22;29438;50.664;10.098;2023-08-12T02:38:32;16.10;89.00
43808;DHT22;29438;50.664;10.098;2023-08-12T02:40:58;16.00;88.90
43808;DHT22;29438;50.664;10.098;2023-08-12T02:43:23;16.00;88.90
43808;DHT22;29438;50.664;10.098;2023-08-12T02:45:49;16.10;88.90
43808;DHT22;29438;50.664;10.098;2023-08-12T02:48:14;16.10;89.00
43808;DHT22;29438;50.664;10.098;2023-08-12T02:50:40;16.20;88.90
43808;DHT22;29438;50.664;10.098;2023-08-12T02:53:06;16.20;89.00
43808;DHT22;29438;50.664;10.098;2023-08-12T02:55:32;16.20;89.00
43808;DHT22;29438;50.664;10.098;2023-08-12T02:57:58;16.20;88.90
43808;DHT22;29438;50.664;10.098;2023-08-12T03:00:24;16.20;88.80
43808;DHT22;29438;50.664;10.098;2023-08-12T03:02:49;16.30;88.60
43808;DHT22;29438;50.664;10.098;2023-08-12T03:05:15;16.30;88.40
43808;DHT22;29438;50.664;10.098;2023-08-12T03:07:41;16.40;88.30
43808;DHT22;29438;50.664;10.098;2023-08-12T03:10:07;16.40;88.50
43808;DHT22;29438;50.664;10.098;2023-08-12T03:12:32;16.40;88.50
43808;DHT22;29438;50.664;10.098;2023-08-12T03:14:58;16.40;88.50
43808;DHT22;29438;50.664;10.098;2023-08-12T03:17:24;16.40;88.50
43808;DHT22;29438;50.664;10.098;2023-08-12T03:19:49;16.40;88.50
43808;DHT22;29438;50.664;10.098;2023-08-12T03:22:15;16.50;88.60
43808;DHT22;29438;50.664;10.098;2023-08-12T03:24:40;16.50;88.60
43808;DHT22;29438;50.664;10.098;2023-08-12T03:27:06;16.50;88.70
43808;DHT22;29438;50.664;10.098;2023-08-12T03:29:32;16.50;88.80
43808;DHT22;29438;50.664;10.098;2023-08-12T03:31:57;16.60;88.80
43808;DHT22;29438;50.664;10.098;2023-08-12T03:34:23;16.60;88.60
43808;DHT22;29438;50.664;10.098;2023-08-12T03:36:48;16.60;88.60
43808;DHT22;29438;50.664;10.098;2023-08-12T03:39:15;16.70;88.70
43808;DHT22;29438;50.664;10.098;2023-08-12T03:41:41;16.60;88.90
43808;DHT22;29438;50.664;10.098;2023-08-12T03:44:07;16.60;88.60
43808;DHT22;29438;50.664;10.098;2023-08-12T03:46:32;16.60;88.50
43808;DHT22;29438;50.664;10.098;2023-08-12T03:48:58;16.60;88.60
43808;DHT22;29438;50.664;10.098;2023-08-12T03:51:23;16.70;88.70
43808;DHT22;29438;50.664;10.098;2023-08-12T03:53:49;16.70;88.70
43808;DHT22;29438;50.664;10.098;2023-08-12T03:56:14;16.70;88.60
43808;DHT22;29438;50.664;10.098;2023-08-12T03:58:42;16.70;88.50
43808;DHT22;29438;50.664;10.098;2023-08-12T04:01:08;16.70;88.60
43808;DHT22;29438;50.664;10.098;2023-08-12T04:03:33;16.80;88.40
43808;DHT22;29438;50.664;10.098;2023-08-12T04:05:59;16.80;88.20
43808;DHT22;29438;50.664;10.098;2023-08-12T04:08:24;16.80;88.40
43808;DHT22;29438;50.664;10.098;2023-08-12T04:10:51;16.80;88.30
43808;DHT22;29438;50.664;10.098;2023-08-12T04:13:17;16.80;88.30
43808;DHT22;29438;50.664;10.098;2023-08-12T04:15:43;16.80;88.50
43808;DHT22;29438;50.664;10.098;2023-08-12T04:18:13;16.80;88.80
43808;DHT22;29438;50.664;10.098;2023-08-12T04:20:39;16.90;89.00
43808;DHT22;29438;50.664;10.098;2023-08-12T04:23:04;16.90;89.20
43808;DHT22;29438;50.664;10.098;2023-08-12T04:25:30;16.90;89.30
43808;DHT22;29438;50.664;10.098;2023-08-12T04:27:55;16.90;89.30
43808;DHT22;29438;50.664;10.098;2023-08-12T04:30:21;16.90;89.40
43808;DHT22;29438;50.664;10.098;2023-08-12T04:32:46;16.90;89.50
43808;DHT22;29438;50.664;10.098;2023-08-12T04:35:12;16.90;89.50
43808;DHT22;29438;50.664;10.098;2023-08-12T04:37:38;16.90;89.50
43808;DHT22;29438;50.664;10.098;2023-08-12T04:40:04;16.90;90.10
43808;DHT22;29438;50.664;10.098;2023-08-12T04:42:30;16.90;90.50
43808;DHT22;29438;50.664;10.098;2023-08-12T04:44:56;16.80;90.80
43808;DHT22;29438;50.664;10.098;2023-08-12T04:47:21;16.90;91.10
43808;DHT22;29438;50.664;10.098;2023-08-12T04:49:47;16.90;91.30
43808;DHT22;29438;50.664;10.098;2023-08-12T04:52:12;16.90;91.50
43808;DHT22;29438;50.664;10.098;2023-08-12T04:54:38;16.90;91.60
43808;DHT22;29438;50.664;10.098;2023-08-12T04:57:03;16.90;91.70
43808;DHT22;29438;50.664;10.098;2023-08-12T04:59:29;16.80;91.90
43808;DHT22;29438;50.664;10.098;2023-08-12T05:01:54;16.80;92.10
43808;DHT22;29438;50.664;10.098;2023-08-12T05:04:20;16.80;92.20
43808;DHT22;29438;50.664;10.098;2023-08-12T05:06:45;16.80;92.20
43808;DHT22;29438;50.664;10.098;2023-08-12T05:09:11;16.90;92.20
43808;DHT22;29438;50.664;10.098;2023-08-12T05:11:36;17.00;92.40
43808;DHT22;29438;50.664;10.098;2023-08-12T05:14:02;17.10;92.30
43808;DHT22;29438;50.664;10.098;2023-08-12T05:16:28;17.20;92.30
43808;DHT22;29438;50.664;10.098;2023-08-12T05:18:54;17.20;92.10
43808;DHT22;29438;50.664;10.098;2023-08-12T05:21:20;17.30;91.80
43808;DHT22;29438;50.664;10.098;2023-08-12T05:23:45;17.50;91.70
43808;DHT22;29438;50.664;10.098;2023-08-12T05:26:11;17.50;91.30
43808;DHT22;29438;50.664;10.098;2023-08-12T05:28:37;17.50;91.00
43808;DHT22;29438;50.664;10.098;2023-08-12T05:31:02;17.60;91.00
43808;DHT22;29438;50.664;10.098;2023-08-12T05:33:28;17.70;91.10
43808;DHT22;29438;50.664;10.098;2023-08-12T05:35:53;17.90;91.20
43808;DHT22;29438;50.664;10.098;2023-08-12T05:38:19;17.90;91.00
43808;DHT22;29438;50.664;10.098;2023-08-12T05:40:44;17.80;90.70
43808;DHT22;29438;50.664;10.098;2023-08-12T05:43:10;17.80;90.70
43808;DHT22;29438;50.664;10.098;2023-08-12T05:45:35;18.00;90.50
43808;DHT22;29438;50.664;10.098;2023-08-12T05:48:01;18.00;90.20
43808;DHT22;29438;50.664;10.098;2023-08-12T05:50:27;18.00;89.80
43808;DHT22;29438;50.664;10.098;2023-08-12T05:52:52;18.20;89.80
43808;DHT22;29438;50.664;10.098;2023-08-12T05:55:18;18.30;90.30
43808;DHT22;29438;50.664;10.098;2023-08-12T05:57:43;18.50;89.30
43808;DHT22;29438;50.664;10.098;2023-08-12T06:00:09;18.50;89.30
43808;DHT22;29438;50.664;10.098;2023-08-12T06:02:35;18.50;89.50
43808;DHT22;29438;50.664;10.098;2023-08-12T06:05:02;18.50;89.70
43808;DHT22;29438;50.664;10.098;2023-08-12T06:07:27;18.30;89.90
43808;DHT22;29438;50.664;10.098;2023-08-12T06:09:53;18.20;90.00
43808;DHT22;29438;50.664;10.098;2023-08-12T06:12:19;18.20;89.90
43808;DHT22;29438;50.664;10.098;2023-08-12T06:14:44;18.20;90.20
43808;DHT22;29438;50.664;10.098;2023-08-12T06:17:10;18.20;90.40
43808;DHT22;29438;50.664;10.098;2023-08-12T06:19:35;18.10;90.30
43808;DHT22;29438;50.664;10.098;2023-08-12T06:22:01;18.10;90.40
43808;DHT22;29438;50.664;10.098;2023-08-12T06:24:26;18.10;90.30
43808;DHT22;29438;50.664;10.098;2023-08-12T06:26:52;18.00;90.50
43808;DHT22;29438;50.664;10.098;2023-08-12T06:29:17;18.00;90.50
43808;DHT22;29438;50.664;10.098;2023-08-12T06:31:43;18.10;90.30
43808;DHT22;29438;50.664;10.098;2023-08-12T06:34:09;18.10;89.80
43808;DHT22;29438;50.664;10.098;2023-08-12T06:36:34;18.20;89.70
43808;DHT22;29438;50.664;10.098;2023-08-12T06:39:00;18.10;89.00
43808;DHT22;29438;50.664;10.098;2023-08-12T06:41:25;18.10;88.60
43808;DHT22;29438;50.664;10.098;2023-08-12T06:43:51;18.10;88.20
43808;DHT22;29438;50.664;10.098;2023-08-12T06:46:16;18.20;88.00
43808;DHT22;29438;50.664;10.098;2023-08-12T06:48:42;18.10;88.60
43808;DHT22;29438;50.664;10.098;2023-08-12T06:51:07;18.00;88.50
43808;DHT22;29438;50.664;10.098;2023-08-12T06:53:36;18.10;89.00
43808;DHT22;29438;50.664;10.098;2023-08-12T06:56:02;18.00;89.40
43808;DHT22;29438;50.664;10.098;2023-08-12T06:58:28;18.00;90.20
43808;DHT22;29438;50.664;10.098;2023-08-12T07:00:53;18.00;90.20
43808;DHT22;29438;50.664;10.098;2023-08-12T07:03:19;17.90;89.60
43808;DHT22;29438;50.664;10.098;2023-08-12T07:05:45;18.10;89.50
43808;DHT22;29438;50.664;10.098;2023-08-12T07:08:10;18.30;89.90
43808;DHT22;29438;50.664;10.098;2023-08-12T07:10:40;18.30;90.10
43808;DHT22;29438;50.664;10.098;2023-08-12T07:13:05;18.40;90.20
43808;DHT22;29438;50.664;10.098;2023-08-12T07:15:31;18.40;89.20
43808;DHT22;29438;50.664;10.098;2023-08-12T07:17:57;18.50;88.80
43808;DHT22;29438;50.664;10.098;2023-08-12T07:20:24;18.70;88.10
43808;DHT22;29438;50.664;10.098;2023-08-12T07:22:49;18.70;86.20
43808;DHT22;29438;50.664;10.098;2023-08-12T07:25:15;18.90;85.70
43808;DHT22;29438;50.664;10.098;2023-08-12T07:27:41;19.10;85.10
43808;DHT22;29438;50.664;10.098;2023-08-12T07:30:07;19.20;84.10
43808;DHT22;29438;50.664;10.098;2023-08-12T07:32:33;19.40;82.90
43808;DHT22;29438;50.664;10.098;2023-08-12T07:34:58;19.50;82.50
43808;DHT22;29438;50.664;10.098;2023-08-12T07:37:25;19.70;81.00
43808;DHT22;29438;50.664;10.098;2023-08-12T07:39:50;19.70;81.10
43808;DHT22;29438;50.664;10.098;2023-08-12T07:42:16;20.10;81.60
43808;DHT22;29438;50.664;10.098;2023-08-12T07:44:42;20.40;79.30
43808;DHT22;29438;50.664;10.098;2023-08-12T07:47:08;20.40;79.20
43808;DHT22;29438;50.664;10.098;2023-08-12T07:49:35;20.60;79.00
43808;DHT22;29438;50.664;10.098;2023-08-12T07:52:01;21.10;78.30
43808;DHT22;29438;50.664;10.098;2023-08-12T07:54:26;21.90;74.50
43808;DHT22;29438;50.664;10.098;2023-08-12T07:56:52;24.70;66.90
43808;DHT22;29438;50.664;10.098;2023-08-12T07:59:19;25.90;62.70
43808;DHT22;29438;50.664;10.098;2023-08-12T08:01:45;25.90;60.30
43808;DHT22;29438;50.664;10.098;2023-08-12T08:04:11;25.10;62.90
43808;DHT22;29438;50.664;10.098;2023-08-12T08:06:36;23.90;67.50
43808;DHT22;29438;50.664;10.098;2023-08-12T08:09:02;23.50;67.80
43808;DHT22;29438;50.664;10.098;2023-08-12T08:11:29;22.90;69.80
43808;DHT22;29438;50.664;10.098;2023-08-12T08:13:55;22.20;71.30
43808;DHT22;29438;50.664;10.098;2023-08-12T08:16:21;21.50;74.30
43808;DHT22;29438;50.664;10.098;2023-08-12T08:18:47;21.40;73.80
43808;DHT22;29438;50.664;10.098;2023-08-12T08:21:12;21.80;73.00
43808;DHT22;29438;50.664;10.098;2023-08-12T08:23:40;22.50;71.70
43808;DHT22;29438;50.664;10.098;2023-08-12T08:26:07;22.60;71.10
43808;DHT22;29438;50.664;10.098;2023-08-12T08:28:32;22.60;70.70
43808;DHT22;29438;50.664;10.098;2023-08-12T08:30:58;23.30;69.80
43808;DHT22;29438;50.664;10.098;2023-08-12T08:33:25;25.30;66.30
43808;DHT22;29438;50.664;10.098;2023-08-12T08:35:51;27.00;60.10
43808;DHT22;29438;50.664;10.098;2023-08-12T08:38:17;27.60;57.10
43808;DHT22;29438;50.664;10.098;2023-08-12T08:40:43;28.80;56.10
43808;DHT22;29438;50.664;10.098;2023-08-12T08:43:09;30.30;51.60
43808;DHT22;29438;50.664;10.098;2023-08-12T08:45:34;30.60;49.20
43808;DHT22;29438;50.664;10.098;2023-08-12T08:48:02;30.80;48.20
43808;DHT22;29438;50.664;10.098;2023-08-12T08:50:30;30.70;50.10
43808;DHT22;29438;50.664;10.098;2023-08-12T08:52:57;30.10;49.40
43808;DHT22;29438;50.664;10.098;2023-08-12T08:55:23;30.20;49.40
43808;DHT22;29438;50.664;10.098;2023-08-12T08:57:49;30.50;51.30
43808;DHT22;29438;50.664;10.098;2023-08-12T09:00:16;30.60;49.80
43808;DHT22;29438;50.664;10.098;2023-08-12T09:02:43;29.90;50.50
43808;DHT22;29438;50.664;10.098;2023-08-12T09:05:11;29.60;51.60
43808;DHT22;29438;50.664;10.098;2023-08-12T09:07:38;30.50;51.40
43808;DHT22;29438;50.664;10.098;2023-08-12T09:10:04;30.40;48.70
43808;DHT22;29438;50.664;10.098;2023-08-12T09:12:31;29.70;49.50
43808;DHT22;29438;50.664;10.098;2023-08-12T09:14:57;28.60;53.00
43808;DHT22;29438;50.664;10.098;2023-08-12T09:17:24;28.40;54.80
43808;DHT22;29438;50.664;10.098;2023-08-12T09:19:50;28.10;55.90
43808;DHT22;29438;50.664;10.098;2023-08-12T09:22:16;28.20;56.00
43808;DHT22;29438;50.664;10.098;2023-08-12T09:24:42;29.00;53.00
43808;DHT22;29438;50.664;10.098;2023-08-12T09:27:08;27.70;56.50
43808;DHT22;29438;50.664;10.098;2023-08-12T09:29:35;28.20;56.30
43808;DHT22;29438;50.664;10.098;2023-08-12T09:32:18;28.60;54.80
43808;DHT22;29438;50.664;10.098;2023-08-12T09:34:47;29.10;55.70
43808;DHT22;29438;50.664;10.098;2023-08-12T09:37:14;29.70;52.50
43808;DHT22;29438;50.664;10.098;2023-08-12T09:39:40;29.70;52.40
43808;DHT22;29438;50.664;10.098;2023-08-12T09:42:05;30.60;54.30
43808;DHT22;29438;50.664;10.098;2023-08-12T09:44:35;31.90;50.20
43808;DHT22;29438;50.664;10.098;2023-08-12T09:47:01;31.90;52.10
43808;DHT22;29438;50.664;10.098;2023-08-12T09:49:26;32.10;48.80
43808;DHT22;29438;50.664;10.098;2023-08-12T09:51:53;31.50;50.90
43808;DHT22;29438;50.664;10.098;2023-08-12T09:54:19;31.40;50.60
43808;DHT22;29438;50.664;10.098;2023-08-12T09:56:48;31.70;49.80
43808;DHT22;29438;50.664;10.098;2023-08-12T09:59:18;31.20;50.60
43808;DHT22;29438;50.664;10.098;2023-08-12T10:01:44;31.50;50.90
43808;DHT22;29438;50.664;10.098;2023-08-12T10:04:11;31.70;51.30
43808;DHT22;29438;50.664;10.098;2023-08-12T10:06:40;32.00;49.60
43808;DHT22;29438;50.664;10.098;2023-08-12T10:09:06;31.80;50.60
43808;DHT22;29438;50.664;10.098;2023-08-12T10:11:34;31.70;50.00
43808;DHT22;29438;50.664;10.098;2023-08-12T10:14:00;31.90;50.90
43808;DHT22;29438;50.664;10.098;2023-08-12T10:16:29;31.70;51.50
43808;DHT22;29438;50.664;10.098;2023-08-12T10:18:57;31.90;52.30
43808;DHT22;29438;50.664;10.098;2023-08-12T10:21:23;31.90;50.60
43808;DHT22;29438;50.664;10.098;2023-08-12T10:23:50;31.00;52.00
43808;DHT22;29438;50.664;10.098;2023-08-12T10:26:17;31.50;51.50
43808;DHT22;29438;50.664;10.098;2023-08-12T10:28:43;30.80;52.00
43808;DHT22;29438;50.664;10.098;2023-08-12T10:31:11;30.70;53.50
43808;DHT22;29438;50.664;10.098;2023-08-12T10:33:38;31.20;52.20
43808;DHT22;29438;50.664;10.098;2023-08-12T10:36:04;32.10;50.10
43808;DHT22;29438;50.664;10.098;2023-08-12T10:38:32;31.40;51.90
43808;DHT22;29438;50.664;10.098;2023-08-12T10:41:24;31.20;52.60
43808;DHT22;29438;50.664;10.098;2023-08-12T10:44:00;31.80;49.90
43808;DHT22;29438;50.664;10.098;2023-08-12T10:46:35;31.20;50.80
43808;DHT22;29438;50.664;10.098;2023-08-12T10:49:08;32.10;48.90
43808;DHT22;29438;50.664;10.098;2023-08-12T10:51:50;32.10;49.80
43808;DHT22;29438;50.664;10.098;2023-08-12T10:54:27;32.20;47.10
43808;DHT22;29438;50.664;10.098;2023-08-12T11:02:33;32.50;49.40
43808;DHT22;29438;50.664;10.098;2023-08-12T11:10:22;31.10;50.90
43808;DHT22;29438;50.664;10.098;2023-08-12T11:15:36;30.40;51.20
43808;DHT22;29438;50.664;10.098;2023-08-12T11:18:05;31.10;50.40
43808;DHT22;29438;50.664;10.098;2023-08-12T11:20:31;31.80;50.50
43808;DHT22;29438;50.664;10.098;2023-08-12T11:22:57;31.70;48.20
43808;DHT22;29438;50.664;10.098;2023-08-12T11:25:24;31.70;49.60
43808;DHT22;29438;50.664;10.098;2023-08-12T11:27:50;31.50;49.20
43808;DHT22;29438;50.664;10.098;2023-08-12T11:30:17;30.40;51.20
43808;DHT22;29438;50.664;10.098;2023-08-12T11:32:45;30.40;52.20
43808;DHT22;29438;50.664;10.098;2023-08-12T11:35:12;30.60;51.10
43808;DHT22;29438;50.664;10.098;2023-08-12T11:37:39;30.60;51.00
43808;DHT22;29438;50.664;10.098;2023-08-12T11:40:06;30.80;50.10
43808;DHT22;29438;50.664;10.098;2023-08-12T11:42:38;30.60;53.10
43808;DHT22;29438;50.664;10.098;2023-08-12T11:45:05;30.80;52.80
43808;DHT22;29438;50.664;10.098;2023-08-12T11:47:30;30.80;54.10
43808;DHT22;29438;50.664;10.098;2023-08-12T11:49:56;30.90;52.20
43808;DHT22;29438;50.664;10.098;2023-08-12T11:52:22;31.30;49.40
43808;DHT22;29438;50.664;10.098;2023-08-12T11:54:49;30.60;50.20
43808;DHT22;29438;50.664;10.098;2023-08-12T11:57:15;30.00;52.70
43808;DHT22;29438;50.664;10.098;2023-08-12T11:59:41;29.90;53.40
43808;DHT22;29438;50.664;10.098;2023-08-12T12:02:07;30.10;53.80
43808;DHT22;29438;50.664;10.098;2023-08-12T12:04:32;30.20;53.00
43808;DHT22;29438;50.664;10.098;2023-08-12T12:06:58;29.50;54.20
43808;DHT22;29438;50.664;10.098;2023-08-12T12:09:25;28.40;56.70
43808;DHT22;29438;50.664;10.098;2023-08-12T12:11:54;27.80;60.20
43808;DHT22;29438;50.664;10.098;2023-08-12T12:14:20;27.50;61.80
43808;DHT22;29438;50.664;10.098;2023-08-12T12:16:47;27.20;62.50
43808;DHT22;29438;50.664;10.098;2023-08-12T12:19:23;27.20;62.80
43808;DHT22;29438;50.664;10.098;2023-08-12T12:21:50;27.20;63.40
43808;DHT22;29438;50.664;10.098;2023-08-12T12:24:17;27.00;63.10
43808;DHT22;29438;50.664;10.098;2023-08-12T12:26:44;26.70;64.50
43808;DHT22;29438;50.664;10.098;2023-08-12T12:29:10;26.30;62.90
43808;DHT22;29438;50.664;10.098;2023-08-12T12:31:40;26.00;64.00
43808;DHT22;29438;50.664;10.098;2023-08-12T12:34:08;25.70;64.30
43808;DHT22;29438;50.664;10.098;2023-08-12T12:36:36;25.40;66.20
43808;DHT22;29438;50.664;10.098;2023-08-12T12:39:06;25.30;71.40
43808;DHT22;29438;50.664;10.098;2023-08-12T12:41:32;24.90;73.70
43808;DHT22;29438;50.664;10.098;2023-08-12T12:44:00;24.50;76.10
43808;DHT22;29438;50.664;10.098;2023-08-12T12:46:26;24.20;78.10
43808;DHT22;29438;50.664;10.098;2023-08-12T12:48:52;23.60;79.70
43808;DHT22;29438;50.664;10.098;2023-08-12T12:51:17;23.20;81.20
43808;DHT22;29438;50.664;10.098;2023-08-12T12:53:43;22.80;82.70
43808;DHT22;29438;50.664;10.098;2023-08-12T12:56:08;22.60;83.90
43808;DHT22;29438;50.664;10.098;2023-08-12T12:58:35;22.40;84.60
43808;DHT22;29438;50.664;10.098;2023-08-12T13:01:01;22.40;85.40
43808;DHT22;29438;50.664;10.098;2023-08-12T13:03:27;22.30;84.80
43808;DHT22;29438;50.664;10.098;2023-08-12T13:05:53;22.20;85.70
43808;DHT22;29438;50.664;10.098;2023-08-12T13:08:19;22.20;85.70
43808;DHT22;29438;50.664;10.098;2023-08-12T13:10:45;22.20;85.40
43808;DHT22;29438;50.664;10.098;2023-08-12T13:13:12;22.10;86.10
43808;DHT22;29438;50.664;10.098;2023-08-12T13:15:38;22.00;86.30
43808;DHT22;29438;50.664;10.098;2023-08-12T13:18:03;21.90;87.30
43808;DHT22;29438;50.664;10.098;2023-08-12T13:20:29;21.80;87.70
43808;DHT22;29438;50.664;10.098;2023-08-12T13:22:54;21.70;87.90
43808;DHT22;29438;50.664;10.098;2023-08-12T13:25:20;21.80;88.20
43808;DHT22;29438;50.664;10.098;2023-08-12T13:27:45;21.70;88.10
43808;DHT22;29438;50.664;10.098;2023-08-12T13:30:11;21.70;87.60
43808;DHT22;29438;50.664;10.098;2023-08-12T13:32:37;21.70;87.20
43808;DHT22;29438;50.664;10.098;2023-08-12T13:35:03;21.70;88.10
43808;DHT22;29438;50.664;10.098;2023-08-12T13:37:29;21.60;87.20
43808;DHT22;29438;50.664;10.098;2023-08-12T13:39:55;21.70;88.20
43808;DHT22;29438;50.664;10.098;2023-08-12T13:42:20;21.70;88.20
43808;DHT22;29438;50.664;10.098;2023-08-12T13:44:46;21.70;87.90
43808;DHT22;29438;50.664;10.098;2023-08-12T13:47:11;21.70;87.50
43808;DHT22;29438;50.664;10.098;2023-08-12T13:49:37;21.50;87.20
43808;DHT22;29438;50.664;10.098;2023-08-12T13:52:02;21.40;86.40
43808;DHT22;29438;50.664;10.098;2023-08-12T13:54:28;21.40;86.70
43808;DHT22;29438;50.664;10.098;2023-08-12T13:56:54;21.20;85.50
43808;DHT22;29438;50.664;10.098;2023-08-12T13:59:20;21.30;87.20
43808;DHT22;29438;50.664;10.098;2023-08-12T14:01:45;21.20;86.40
43808;DHT22;29438;50.664;10.098;2023-08-12T14:04:11;21.20;86.60
43808;DHT22;29438;50.664;10.098;2023-08-12T14:06:36;21.10;86.00
43808;DHT22;29438;50.664;10.098;2023-08-12T14:09:02;21.20;87.00
43808;DHT22;29438;50.664;10.098;2023-08-12T14:11:28;21.20;86.20
43808;DHT22;29438;50.664;10.098;2023-08-12T14:13:53;21.20;86.20
43808;DHT22;29438;50.664;10.098;2023-08-12T14:16:19;21.20;86.30
43808;DHT22;29438;50.664;10.098;2023-08-12T14:18:45;21.20;85.30
43808;DHT22;29438;50.664;10.098;2023-08-12T14:21:10;21.20;85.50
43808;DHT22;29438;50.664;10.098;2023-08-12T14:23:36;21.30;85.70
43808;DHT22;29438;50.664;10.098;2023-08-12T14:26:01;21.30;84.90
43808;DHT22;29438;50.664;10.098;2023-08-12T14:28:27;21.40;84.80
43808;DHT22;29438;50.664;10.098;2023-08-12T14:30:54;21.50;83.50
43808;DHT22;29438;50.664;10.098;2023-08-12T14:33:21;21.60;83.50
43808;DHT22;29438;50.664;10.098;2023-08-12T14:35:50;21.80;83.60
43808;DHT22;29438;50.664;10.098;2023-08-12T14:38:16;22.00;82.20
43808;DHT22;29438;50.664;10.098;2023-08-12T14:40:45;22.10;81.90
43808;DHT22;29438;50.664;10.098;2023-08-12T14:43:11;22.30;81.50
43808;DHT22;29438;50.664;10.098;2023-08-12T14:45:37;22.60;79.30
43808;DHT22;29438;50.664;10.098;2023-08-12T14:48:03;23.10;80.90
43808;DHT22;29438;50.664;10.098;2023-08-12T14:50:28;23.60;76.80
43808;DHT22;29438;50.664;10.098;2023-08-12T14:52:54;23.90;76.00
43808;DHT22;29438;50.664;10.098;2023-08-12T14:55:19;24.10;73.00
43808;DHT22;29438;50.664;10.098;2023-08-12T14:57:45;24.10;71.20
43808;DHT22;29438;50.664;10.098;2023-08-12T15:00:11;23.90;74.20
43808;DHT22;29438;50.664;10.098;2023-08-12T15:02:37;24.20;75.50
43808;DHT22;29438;50.664;10.098;2023-08-12T15:05:02;24.50;74.40
43808;DHT22;29438;50.664;10.098;2023-08-12T15:07:28;24.80;70.00
43808;DHT22;29438;50.664;10.098;2023-08-12T15:09:53;24.60;69.80
43808;DHT22;29438;50.664;10.098;2023-08-12T15:12:20;24.40;70.90
43808;DHT22;29438;50.664;10.098;2023-08-12T15:14:46;24.50;70.50
43808;DHT22;29438;50.664;10.098;2023-08-12T15:17:11;24.50;71.10
43808;DHT22;29438;50.664;10.098;2023-08-12T15:19:37;24.40;71.30
43808;DHT22;29438;50.664;10.098;2023-08-12T15:22:02;24.20;71.60
43808;DHT22;29438;50.664;10.098;2023-08-12T15:24:28;24.10;71.60
43808;DHT22;29438;50.664;10.098;2023-08-12T15:26:54;24.10;71.00